Time;durP1;ratioP1;P1;durP2;ratioP2;P2;SDS_P1;SDS_P2;PMS_P1;PMS_P2;Temp;Humidity;BMP_temperature;BMP_pressure;BME280_temperature;BME280_humidity;BME280_pressure;Samples;Min_cycle;Max_cycle;Signal;HPM_P1;HPM_P2
2022/07/03 00:02:20;;;;;;;4.80;1.47;;;18.80;23.90;;;;;;5019810;28;20173;-78
2022/07/03 00:04:45;;;;;;;3.10;1.80;;;18.90;21.30;;;;;;5018495;28;20221;-86
2022/07/03 00:07:11;;;;;;;4.67;1.80;;;19.00;18.90;;;;;;5021933;28;20350;-90
2022/07/03 00:09:37;;;;;;;3.40;1.60;;;19.00;18.70;;;;;;5021071;28;20174;-78
2022/07/03 00:12:04;;;;;;;4.97;2.10;;;19.00;16.60;;;;;;5019511;28;20178;-84
2022/07/03 00:14:30;;;;;;;5.53;1.80;;;18.90;15.80;;;;;;5020863;28;20639;-78
2022/07/03 00:16:56;;;;;;;5.27;2.00;;;18.90;16.40;;;;;;5039945;28;20179;-83
2022/07/03 00:19:23;;;;;;;3.87;1.50;;;19.00;17.30;;;;;;5017382;28;20202;-82
2022/07/03 00:22:03;;;;;;;4.53;1.73;;;19.10;14.30;;;;;;5015179;28;20636;-83
2022/07/03 00:24:47;;;;;;;4.20;1.53;;;19.20;10.60;;;;;;5014429;28;20264;-82
2022/07/03 00:27:15;;;;;;;5.10;2.00;;;19.20;10.00;;;;;;5014043;28;20312;-85
2022/07/03 00:29:44;;;;;;;4.23;1.97;;;19.30;11.50;;;;;;5015097;28;20189;-89
2022/07/03 00:32:13;;;;;;;3.00;1.67;;;19.30;9.30;;;;;;5015095;28;20639;-86
2022/07/03 00:34:40;;;;;;;2.97;1.60;;;19.20;11.70;;;;;;5014797;28;20167;-85
2022/07/03 00:37:10;;;;;;;3.93;1.77;;;19.10;9.70;;;;;;5015347;28;20175;-87
2022/07/03 00:39:42;;;;;;;3.27;1.80;;;19.00;9.70;;;;;;5015516;28;20188;-82
2022/07/03 00:42:09;;;;;;;3.47;1.60;;;19.20;3.10;;;;;;5015568;28;20250;-82
2022/07/03 00:44:43;;;;;;;4.67;1.83;;;19.30;1.00;;;;;;5014966;28;20162;-80
2022/07/03 00:47:11;;;;;;;3.93;1.50;;;19.40;1.00;;;;;;5014108;28;20263;-91
2022/07/03 00:49:38;;;;;;;6.03;2.03;;;19.40;1.00;;;;;;5013984;28;20172;-79
2022/07/03 00:52:05;;;;;;;3.43;1.80;;;19.40;1.00;;;;;;5013026;28;20265;-82
2022/07/03 00:54:34;;;;;;;4.17;1.93;;;19.50;1.00;;;;;;5015338;28;20205;-90
2022/07/03 00:57:01;;;;;;;4.13;1.73;;;19.50;1.00;;;;;;5015354;28;20242;-90
2022/07/03 00:59:27;;;;;;;5.20;2.17;;;19.40;1.00;;;;;;5015381;28;20162;-84
2022/07/03 01:02:01;;;;;;;4.13;2.10;;;19.20;5.30;;;;;;5019406;28;20227;-90
2022/07/03 01:04:51;;;;;;;6.63;2.63;;;19.10;6.90;;;;;;5035674;28;20227;-89
2022/07/03 01:07:45;;;;;;;4.50;2.20;;;18.90;10.40;;;;;;5019843;28;20232;-81
2022/07/03 01:10:29;;;;;;;6.67;2.03;;;18.90;9.40;;;;;;5023382;28;20195;-79
2022/07/03 01:13:13;;;;;;;5.83;2.33;;;18.90;8.90;;;;;;5023012;28;20158;-77
2022/07/03 01:15:59;;;;;;;5.00;2.67;;;18.90;1.80;;;;;;5036245;28;20166;-81
2022/07/03 01:18:34;;;;;;;4.77;2.70;;;18.90;1.00;;;;;;5037571;28;20166;-78
2022/07/03 01:21:18;;;;;;;4.07;1.90;;;18.90;1.00;;;;;;5024824;28;20165;-80
2022/07/03 01:24:22;;;;;;;3.60;1.50;;;18.70;1.00;;;;;;5021485;28;20184;-91
2022/07/03 01:26:55;;;;;;;5.47;2.00;;;18.60;1.00;;;;;;5038340;28;20575;-85
2022/07/03 01:29:35;;;;;;;7.33;2.20;;;18.60;1.00;;;;;;5019391;28;20162;-89
2022/07/03 01:32:04;;;;;;;3.17;1.60;;;18.60;1.00;;;;;;5018672;28;20216;-88
2022/07/03 01:34:34;;;;;;;2.80;1.70;;;18.60;1.00;;;;;;5018697;28;20167;-90
2022/07/03 01:37:02;;;;;;;4.60;1.70;;;18.70;1.00;;;;;;5019370;28;20179;-90
2022/07/03 01:39:29;;;;;;;4.30;1.70;;;18.70;1.00;;;;;;5020109;28;20608;-88
2022/07/03 01:42:00;;;;;;;5.73;1.50;;;18.70;1.00;;;;;;5020106;28;20178;-86
2022/07/03 01:44:28;;;;;;;3.90;1.70;;;18.70;1.00;;;;;;5018842;28;20170;-81
2022/07/03 01:47:01;;;;;;;3.83;1.40;;;18.70;1.00;;;;;;5018271;28;20199;-78
2022/07/03 01:49:28;;;;;;;4.40;1.50;;;18.70;1.00;;;;;;5017838;28;20508;-89
2022/07/03 01:51:55;;;;;;;3.23;1.53;;;18.70;1.00;;;;;;5033327;28;20178;-80
2022/07/03 01:54:25;;;;;;;3.30;1.47;;;18.60;1.00;;;;;;5018600;28;20193;-79
2022/07/03 01:56:52;;;;;;;2.20;1.30;;;18.60;1.00;;;;;;5018859;28;20184;-79
2022/07/03 01:59:18;;;;;;;2.50;1.30;;;18.60;1.00;;;;;;5018766;28;20173;-80
2022/07/03 02:01:48;;;;;;;4.17;1.40;;;18.70;1.00;;;;;;5019348;28;20249;-85
2022/07/03 02:04:32;;;;;;;5.03;1.70;;;18.80;1.00;;;;;;5017492;28;20198;-83
2022/07/03 02:07:04;;;;;;;5.90;1.60;;;18.90;1.00;;;;;;5017224;28;20253;-78
2022/07/03 02:10:00;;;;;;;2.13;1.57;;;18.90;1.00;;;;;;5016911;28;20634;-79
2022/07/03 02:12:47;;;;;;;4.03;1.70;;;18.90;1.00;;;;;;5031539;28;20182;-83
2022/07/03 02:15:17;;;;;;;3.30;1.47;;;19.00;1.00;;;;;;5016837;28;20636;-79
2022/07/03 02:17:47;;;;;;;3.87;1.50;;;18.90;1.00;;;;;;5016132;28;20174;-84
2022/07/03 02:20:15;;;;;;;4.47;1.80;;;18.80;1.00;;;;;;5016920;28;20244;-78
2022/07/03 02:22:57;;;;;;;5.20;1.63;;;18.80;1.00;;;;;;5017031;28;20186;-81
2022/07/03 02:25:35;;;;;;;2.97;1.60;;;18.70;1.00;;;;;;5017181;28;20171;-80
2022/07/03 02:28:05;;;;;;;3.33;1.30;;;18.80;1.00;;;;;;5017228;28;20717;-78
2022/07/03 02:30:38;;;;;;;4.27;1.43;;;18.80;1.00;;;;;;5016835;28;20161;-79
2022/07/03 02:33:06;;;;;;;3.40;1.70;;;18.80;1.00;;;;;;5016203;28;20181;-77
2022/07/03 02:35:34;;;;;;;3.03;1.50;;;18.80;1.00;;;;;;5022331;28;20171;-85
2022/07/03 02:38:09;;;;;;;3.97;1.70;;;18.60;1.00;;;;;;5022130;28;20180;-77
2022/07/03 02:40:37;;;;;;;4.00;1.63;;;18.50;1.00;;;;;;5023258;28;20171;-78
2022/07/03 02:43:16;;;;;;;2.53;1.33;;;18.40;3.10;;;;;;5027107;28;20170;-77
2022/07/03 02:49:31;;;;;;;7.37;1.70;;;18.30;4.00;;;;;;5022786;28;20685;-88
2022/07/03 02:52:35;;;;;;;3.83;1.60;;;18.40;1.00;;;;;;5018022;28;20192;-88
2022/07/03 02:55:25;;;;;;;2.60;1.30;;;18.50;1.00;;;;;;5016549;28;20199;-78
2022/07/03 02:58:32;;;;;;;3.17;1.47;;;18.60;1.00;;;;;;5016576;28;20241;-80
2022/07/03 03:01:12;;;;;;;2.97;1.53;;;18.60;1.00;;;;;;5016030;28;20220;-84
2022/07/03 03:03:49;;;;;;;3.80;1.80;;;18.60;1.00;;;;;;5016937;28;20179;-83
2022/07/03 03:06:18;;;;;;;3.47;1.60;;;18.40;1.00;;;;;;5019306;28;20201;-89
2022/07/03 03:08:50;;;;;;;2.83;1.57;;;18.30;2.90;;;;;;5019242;28;20242;-88
2022/07/03 03:11:36;;;;;;;3.03;1.47;;;18.30;2.80;;;;;;5018904;28;20177;-81
2022/07/03 03:14:07;;;;;;;6.10;1.60;;;18.30;1.00;;;;;;5038441;28;20191;-76
2022/07/03 03:16:34;;;;;;;3.23;1.73;;;18.40;1.00;;;;;;5027715;28;20182;-78
2022/07/03 03:19:00;;;;;;;4.50;1.77;;;18.50;1.00;;;;;;5024138;28;20175;-88
2022/07/03 03:21:31;;;;;;;3.30;1.63;;;18.30;1.00;;;;;;5020843;28;20676;-81
2022/07/03 03:23:57;;;;;;;3.73;2.00;;;18.20;5.50;;;;;;5020310;28;20702;-81
2022/07/03 03:26:31;;;;;;;3.30;1.80;;;18.10;12.40;;;;;;5022809;28;20195;-77
2022/07/03 03:29:11;;;;;;;3.23;1.80;;;18.00;17.20;;;;;;5032461;28;20170;-77
2022/07/03 03:31:41;;;;;;;4.40;1.73;;;18.00;19.00;;;;;;5033428;28;20155;-78
2022/07/03 03:34:07;;;;;;;4.97;1.97;;;18.10;17.10;;;;;;5035775;28;20210;-78
2022/07/03 03:36:33;;;;;;;4.77;1.67;;;17.90;19.80;;;;;;5036105;28;20173;-80
2022/07/03 03:39:21;;;;;;;3.43;1.70;;;18.10;15.60;;;;;;5033934;28;20227;-80
2022/07/03 03:41:49;;;;;;;3.03;1.60;;;18.10;4.80;;;;;;5033057;28;20179;-77
2022/07/03 03:47:57;;;;;;;3.97;1.80;;;18.10;11.90;;;;;;5024743;28;20310;-90
2022/07/03 03:50:46;;;;;;;4.60;2.17;;;17.80;22.10;;;;;;5014985;28;20615;-88
2022/07/03 03:53:12;;;;;;;3.20;1.80;;;17.80;23.00;;;;;;5014705;28;20183;-86
2022/07/03 03:56:14;;;;;;;5.33;2.00;;;17.80;24.30;;;;;;5018608;28;20277;-82
2022/07/03 03:58:41;;;;;;;3.17;1.73;;;17.80;23.20;;;;;;5016237;28;20174;-79
2022/07/03 04:01:08;;;;;;;4.30;2.03;;;17.80;25.20;;;;;;5015633;28;20599;-82
2022/07/03 04:03:35;;;;;;;5.17;2.20;;;17.60;27.40;;;;;;5015143;28;20172;-84
2022/07/03 04:06:01;;;;;;;4.00;1.87;;;17.60;28.80;;;;;;5014809;28;20174;-83
2022/07/03 04:08:28;;;;;;;5.20;1.60;;;17.60;26.40;;;;;;5014483;28;20205;-88
2022/07/03 04:10:54;;;;;;;3.93;2.10;;;17.80;23.50;;;;;;5013451;28;20184;-87
2022/07/03 04:13:20;;;;;;;3.83;1.97;;;17.90;22.60;;;;;;5014631;28;20170;-80
2022/07/03 04:15:47;;;;;;;3.03;1.77;;;17.70;25.90;;;;;;5014656;28;20257;-83
2022/07/03 04:18:13;;;;;;;2.77;1.90;;;17.70;26.70;;;;;;5014587;28;20328;-78
2022/07/03 04:20:38;;;;;;;2.53;2.10;;;17.70;23.90;;;;;;5014216;28;20301;-82
2022/07/03 04:23:05;;;;;;;3.17;1.80;;;17.70;23.80;;;;;;5014102;28;20225;-84
2022/07/03 04:25:31;;;;;;;3.83;1.90;;;17.60;24.50;;;;;;5014460;28;20175;-81
2022/07/03 04:27:57;;;;;;;3.00;1.80;;;17.70;25.90;;;;;;5014147;28;20210;-88
2022/07/03 04:30:22;;;;;;;4.17;1.80;;;17.70;25.00;;;;;;5014129;28;20178;-82
2022/07/03 04:32:49;;;;;;;3.43;2.00;;;17.70;25.70;;;;;;5014033;28;20244;-78
2022/07/03 04:35:15;;;;;;;3.77;1.97;;;17.60;28.60;;;;;;5016308;28;20557;-80
2022/07/03 04:37:41;;;;;;;3.43;1.90;;;17.60;29.50;;;;;;5018080;28;20236;-77
2022/07/03 04:40:08;;;;;;;3.97;1.90;;;17.70;27.40;;;;;;5017403;28;20181;-85
2022/07/03 04:42:34;;;;;;;4.03;1.87;;;17.80;25.30;;;;;;5017960;28;20561;-78
2022/07/03 04:44:59;;;;;;;3.10;1.60;;;17.80;25.60;;;;;;5017712;28;20238;-80
2022/07/03 04:47:26;;;;;;;3.37;1.90;;;17.90;22.90;;;;;;5017229;28;20706;-77
2022/07/03 04:49:52;;;;;;;3.87;1.93;;;17.90;22.10;;;;;;5018518;28;20225;-89
2022/07/03 04:52:17;;;;;;;4.27;2.10;;;17.90;15.80;;;;;;5015205;28;20682;-89
2022/07/03 04:54:43;;;;;;;4.33;1.80;;;18.00;16.70;;;;;;5015928;28;20230;-88
2022/07/03 04:57:09;;;;;;;2.87;1.77;;;18.00;15.20;;;;;;5015593;28;20167;-79
2022/07/03 04:59:34;;;;;;;2.33;1.70;;;17.90;18.40;;;;;;5014855;28;20197;-86
2022/07/03 05:02:00;;;;;;;3.93;1.97;;;18.00;16.40;;;;;;5013988;28;20679;-87
2022/07/03 05:04:26;;;;;;;5.20;1.70;;;18.00;14.10;;;;;;5016252;28;20710;-80
2022/07/03 05:06:51;;;;;;;4.20;1.80;;;18.10;13.00;;;;;;5016722;28;20172;-88
2022/07/03 05:09:18;;;;;;;3.57;1.70;;;18.30;6.30;;;;;;5014368;28;20178;-89
2022/07/03 05:11:44;;;;;;;2.73;1.57;;;18.40;5.10;;;;;;5013884;28;20257;-90
2022/07/03 05:14:10;;;;;;;3.83;1.83;;;18.40;4.70;;;;;;5014000;28;20172;-86
2022/07/03 05:16:36;;;;;;;2.53;1.50;;;18.30;5.80;;;;;;5014300;28;20646;-91
2022/07/03 05:19:02;;;;;;;3.53;1.87;;;18.20;7.90;;;;;;5015692;28;20184;-78
2022/07/03 05:21:28;;;;;;;4.20;2.20;;;18.00;10.20;;;;;;5014434;28;20262;-81
2022/07/03 05:23:53;;;;;;;5.03;2.27;;;18.00;15.70;;;;;;5014180;28;20745;-81
2022/07/03 05:26:19;;;;;;;3.20;2.00;;;17.90;17.40;;;;;;5013803;28;20191;-78
2022/07/03 05:28:45;;;;;;;2.87;2.00;;;18.00;17.40;;;;;;5013548;28;20214;-89
2022/07/03 05:31:10;;;;;;;3.97;2.00;;;17.80;19.40;;;;;;5015290;28;20181;-89
2022/07/03 05:33:38;;;;;;;3.53;2.50;;;17.80;21.20;;;;;;5014269;28;20186;-80
2022/07/03 05:36:04;;;;;;;3.70;2.10;;;17.50;28.40;;;;;;5013964;28;20194;-83
2022/07/03 05:41:16;;;;;;;4.23;2.37;;;17.50;35.90;;;;;;5014437;28;20213;-78
2022/07/03 05:43:41;;;;;;;3.57;2.27;;;17.40;37.80;;;;;;5013999;28;20174;-77
2022/07/03 05:46:07;;;;;;;4.87;2.30;;;17.40;39.20;;;;;;5015152;28;20571;-89
2022/07/03 05:48:33;;;;;;;4.83;2.47;;;17.40;40.90;;;;;;5017736;28;20619;-79
2022/07/03 05:50:59;;;;;;;4.10;2.13;;;17.40;40.10;;;;;;5018642;28;20170;-87
2022/07/03 05:53:25;;;;;;;3.37;2.63;;;17.60;39.70;;;;;;5018416;28;20174;-80
2022/07/03 05:55:51;;;;;;;4.47;2.20;;;17.70;40.60;;;;;;5020841;28;20174;-89
2022/07/03 05:58:17;;;;;;;3.57;2.10;;;17.70;38.10;;;;;;5020091;28;20232;-78
2022/07/03 06:00:42;;;;;;;3.27;2.20;;;17.90;36.30;;;;;;5018537;28;20225;-79
2022/07/03 06:03:08;;;;;;;4.23;2.70;;;18.00;34.40;;;;;;5020217;28;20171;-85
2022/07/03 06:05:34;;;;;;;6.30;2.60;;;18.10;34.30;;;;;;5033694;28;20163;-79
2022/07/03 06:08:00;;;;;;;4.67;2.40;;;18.00;37.20;;;;;;5032483;28;20206;-78
2022/07/03 06:10:47;;;;;;;4.60;2.67;;;18.10;35.30;;;;;;5025494;28;20637;-77
2022/07/03 06:13:24;;;;;;;4.37;2.70;;;18.20;36.40;;;;;;5022363;28;20615;-79
2022/07/03 06:15:51;;;;;;;4.87;2.43;;;18.20;37.50;;;;;;5018622;28;20163;-87
2022/07/03 06:18:19;;;;;;;4.10;2.07;;;18.30;36.10;;;;;;5020823;28;20227;-80
2022/07/03 06:20:45;;;;;;;4.57;2.77;;;18.20;40.80;;;;;;5021217;28;20171;-88
2022/07/03 06:23:10;;;;;;;6.00;2.80;;;18.20;42.20;;;;;;5023679;28;20228;-81
2022/07/03 06:25:36;;;;;;;6.00;2.73;;;18.30;38.90;;;;;;5035225;28;20186;-79
2022/07/03 06:28:01;;;;;;;5.80;2.23;;;18.40;38.70;;;;;;5018260;28;20300;-91
2022/07/03 06:30:27;;;;;;;4.10;2.20;;;18.40;38.00;;;;;;5017215;28;20650;-78
2022/07/03 06:32:53;;;;;;;5.10;2.23;;;18.30;39.50;;;;;;5020097;28;20208;-89
2022/07/03 06:35:18;;;;;;;5.40;2.43;;;18.20;42.60;;;;;;5020539;28;20168;-86
2022/07/03 06:37:44;;;;;;;3.37;2.30;;;18.10;45.80;;;;;;5036921;28;20214;-85
2022/07/03 06:40:10;;;;;;;3.30;1.90;;;18.00;48.50;;;;;;5024246;28;20198;-88
2022/07/03 06:42:36;;;;;;;3.80;2.10;;;18.00;49.40;;;;;;5021599;28;20193;-85
2022/07/03 06:45:02;;;;;;;5.60;2.23;;;18.10;48.30;;;;;;5020266;28;20641;-79
2022/07/03 06:47:27;;;;;;;6.57;2.27;;;18.40;43.00;;;;;;5020287;28;20210;-89
2022/07/03 06:49:53;;;;;;;3.30;1.80;;;18.40;39.90;;;;;;5020704;28;20522;-78
2022/07/03 06:52:18;;;;;;;6.13;2.10;;;18.50;39.80;;;;;;5018764;28;20162;-80
2022/07/03 06:54:44;;;;;;;3.80;1.70;;;18.50;39.80;;;;;;5017684;28;20198;-88
2022/07/03 06:57:13;;;;;;;3.37;1.77;;;18.50;39.80;;;;;;5016671;28;20170;-82
2022/07/03 06:59:39;;;;;;;5.87;2.20;;;18.50;40.70;;;;;;5016973;28;20205;-79
2022/07/03 07:02:05;;;;;;;3.53;1.93;;;18.70;37.40;;;;;;5016573;28;20653;-89
2022/07/03 07:04:31;;;;;;;6.70;2.20;;;18.70;36.10;;;;;;5017129;28;20649;-90
2022/07/03 07:06:56;;;;;;;4.13;1.77;;;18.80;37.20;;;;;;5018536;28;20190;-79
2022/07/03 07:09:22;;;;;;;5.83;2.20;;;18.90;36.30;;;;;;5019236;28;20183;-88
2022/07/03 07:11:48;;;;;;;4.87;1.97;;;19.00;30.70;;;;;;5022544;28;20168;-84
2022/07/03 07:14:13;;;;;;;5.13;2.30;;;18.80;33.00;;;;;;5019345;28;20181;-90
2022/07/03 07:16:39;;;;;;;5.30;2.30;;;18.90;34.50;;;;;;5016533;28;20170;-79
2022/07/03 07:19:05;;;;;;;3.83;2.43;;;18.90;36.90;;;;;;5016956;28;20583;-81
2022/07/03 07:21:31;;;;;;;4.43;2.40;;;18.90;34.60;;;;;;5032313;28;20166;-88
2022/07/03 07:23:56;;;;;;;4.60;2.63;;;18.70;39.40;;;;;;5023194;28;20172;-78
2022/07/03 07:26:22;;;;;;;6.10;2.60;;;18.70;39.50;;;;;;5029006;28;20190;-86
2022/07/03 07:28:47;;;;;;;5.43;2.67;;;18.80;35.80;;;;;;5027512;28;20230;-86
2022/07/03 07:31:13;;;;;;;8.37;2.70;;;18.80;36.70;;;;;;5025341;28;20282;-85
2022/07/03 07:33:39;;;;;;;4.07;2.17;;;18.90;37.40;;;;;;5034584;28;20178;-84
2022/07/03 07:36:05;;;;;;;6.93;2.97;;;19.00;36.00;;;;;;5036978;28;20174;-81
2022/07/03 07:38:30;;;;;;;5.33;2.63;;;19.20;32.60;;;;;;5022373;28;20212;-81
2022/07/03 07:40:56;;;;;;;5.37;2.67;;;19.30;29.80;;;;;;5021809;28;20227;-78
2022/07/03 07:43:22;;;;;;;3.93;2.27;;;19.30;29.60;;;;;;5025223;28;20208;-82
2022/07/03 07:45:53;;;;;;;4.30;2.53;;;19.40;27.90;;;;;;5025583;28;20574;-81
2022/07/03 07:48:22;;;;;;;4.87;2.93;;;19.30;25.20;;;;;;5015951;28;20214;-85
2022/07/03 07:50:50;;;;;;;4.87;2.57;;;19.20;25.40;;;;;;5014732;28;20170;-86
2022/07/03 07:53:17;;;;;;;5.13;2.70;;;19.20;27.40;;;;;;5014299;28;20271;-81
2022/07/03 07:55:45;;;;;;;5.77;3.17;;;19.10;29.90;;;;;;5014255;28;20649;-80
2022/07/03 07:58:10;;;;;;;5.73;3.47;;;19.20;31.50;;;;;;5018019;28;20178;-80
2022/07/03 08:00:36;;;;;;;5.23;2.33;;;19.10;32.60;;;;;;5017051;28;20180;-79
2022/07/03 08:05:51;;;;;;;4.97;2.67;;;19.20;30.60;;;;;;5021647;28;20192;-82
2022/07/03 08:08:17;;;;;;;5.63;2.50;;;19.30;27.50;;;;;;5013947;28;20219;-78
2022/07/03 08:10:46;;;;;;;6.63;2.20;;;19.50;24.60;;;;;;5013238;28;20167;-79
2022/07/03 08:13:13;;;;;;;5.77;2.00;;;19.60;22.90;;;;;;5013589;28;20204;-79
2022/07/03 08:15:41;;;;;;;4.63;2.40;;;19.80;18.90;;;;;;5013736;28;20178;-80
2022/07/03 08:18:07;;;;;;;7.77;3.17;;;19.90;15.40;;;;;;5012388;28;20231;-82
2022/07/03 08:20:35;;;;;;;4.27;2.20;;;19.90;17.90;;;;;;5013958;28;20178;-83
2022/07/03 08:23:01;;;;;;;3.33;2.13;;;20.00;20.40;;;;;;5012720;28;20178;-80
2022/07/03 08:25:27;;;;;;;4.43;1.90;;;20.10;19.40;;;;;;5014221;28;20171;-84
2022/07/03 08:27:53;;;;;;;5.83;1.70;;;20.30;12.80;;;;;;5028628;28;20285;-81
2022/07/03 08:30:20;;;;;;;5.67;2.00;;;20.50;6.40;;;;;;5024004;28;20197;-79
2022/07/03 08:32:48;;;;;;;3.73;1.60;;;20.60;1.70;;;;;;5025894;28;20197;-78
2022/07/03 08:35:14;;;;;;;2.87;1.30;;;20.60;1.00;;;;;;5019729;28;20192;-84
2022/07/03 08:37:45;;;;;;;4.03;1.90;;;20.50;1.00;;;;;;5014763;28;20608;-86
2022/07/03 08:40:12;;;;;;;4.50;2.13;;;20.30;1.00;;;;;;5013808;28;20231;-81
2022/07/03 08:42:41;;;;;;;3.63;1.90;;;20.30;4.90;;;;;;5013780;28;20204;-80
2022/07/03 08:45:10;;;;;;;4.03;1.80;;;20.30;6.00;;;;;;5013591;28;20199;-82
2022/07/03 08:47:38;;;;;;;3.40;1.50;;;20.50;9.30;;;;;;5013379;28;20303;-82
2022/07/03 08:50:04;;;;;;;4.63;1.37;;;20.80;1.80;;;;;;5013516;28;20200;-83
2022/07/03 08:52:31;;;;;;;3.80;1.33;;;21.10;1.00;;;;;;5013173;28;20185;-77
2022/07/03 08:54:56;;;;;;;3.80;1.40;;;21.20;1.00;;;;;;5013780;28;20174;-81
2022/07/03 08:57:24;;;;;;;2.00;1.00;;;21.10;1.00;;;;;;5013409;28;20705;-80
2022/07/03 08:59:53;;;;;;;2.97;1.20;;;21.20;1.00;;;;;;5028241;28;20516;-86
2022/07/03 09:02:18;;;;;;;4.63;1.40;;;21.20;1.00;;;;;;5013177;28;20209;-77
2022/07/03 09:04:46;;;;;;;3.53;1.30;;;20.90;1.00;;;;;;5013105;28;20174;-85
2022/07/03 09:07:13;;;;;;;4.10;1.30;;;20.90;1.00;;;;;;5013283;28;20206;-83
2022/07/03 09:09:39;;;;;;;3.80;1.50;;;21.00;1.00;;;;;;5014070;28;20176;-82
2022/07/03 09:12:06;;;;;;;2.93;1.20;;;21.10;1.00;;;;;;5013601;28;20171;-81
2022/07/03 09:14:32;;;;;;;4.00;1.43;;;21.20;1.00;;;;;;5014632;28;20283;-81
2022/07/03 09:16:59;;;;;;;3.57;1.20;;;21.20;1.00;;;;;;5014049;28;20178;-88
2022/07/03 09:19:47;;;;;;;2.80;1.20;;;21.10;1.00;;;;;;5014825;28;20204;-80
2022/07/03 09:22:24;;;;;;;3.97;1.20;;;21.00;1.00;;;;;;5018715;28;20172;-83
2022/07/03 09:25:15;;;;;;;3.13;0.80;;;20.80;1.00;;;;;;5032814;28;20263;-82
2022/07/03 09:27:53;;;;;;;2.70;0.97;;;20.90;1.00;;;;;;5016764;28;20226;-83
2022/07/03 09:30:19;;;;;;;1.10;0.90;;;21.10;1.00;;;;;;5017730;28;20173;-78
2022/07/03 09:32:47;;;;;;;1.50;0.87;;;21.20;1.00;;;;;;5017895;28;20541;-78
2022/07/03 09:35:26;;;;;;;1.80;0.90;;;21.30;1.00;;;;;;5018874;28;20170;-80
2022/07/03 09:38:01;;;;;;;2.30;1.17;;;21.50;1.00;;;;;;5021274;28;20170;-83
2022/07/03 09:40:47;;;;;;;4.53;1.43;;;21.60;1.00;;;;;;5017829;28;20661;-79
2022/07/03 09:43:13;;;;;;;2.17;1.00;;;21.40;1.00;;;;;;5018461;28;20718;-78
2022/07/03 09:46:11;;;;;;;2.03;1.00;;;21.20;1.00;;;;;;5033545;28;20204;-82
2022/07/03 09:48:39;;;;;;;3.93;1.20;;;21.20;1.00;;;;;;5037814;28;20230;-78
2022/07/03 09:51:10;;;;;;;3.13;1.03;;;21.40;1.00;;;;;;5018297;28;20184;-78
2022/07/03 09:53:50;;;;;;;5.47;1.17;;;21.30;1.00;;;;;;5017188;28;20248;-79
2022/07/03 09:56:17;;;;;;;1.97;0.90;;;21.20;1.00;;;;;;5017756;28;20177;-84
2022/07/03 09:59:18;;;;;;;4.33;1.27;;;21.00;1.00;;;;;;5016714;28;20180;-80
2022/07/03 10:01:45;;;;;;;2.97;0.93;;;20.90;1.00;;;;;;5036328;28;20185;-79
2022/07/03 10:04:12;;;;;;;3.53;1.10;;;20.80;1.00;;;;;;5023665;28;20191;-81
2022/07/03 10:06:59;;;;;;;2.87;0.80;;;20.80;1.00;;;;;;5016170;28;20173;-79
2022/07/03 10:09:26;;;;;;;2.13;0.83;;;20.80;1.00;;;;;;5016763;28;20181;-80
2022/07/03 10:11:53;;;;;;;1.97;0.70;;;20.80;1.00;;;;;;5034351;28;20186;-79
2022/07/03 10:14:21;;;;;;;1.67;0.70;;;20.80;1.00;;;;;;5016575;28;20171;-82
2022/07/03 10:16:48;;;;;;;2.13;0.80;;;20.80;1.00;;;;;;5020988;28;20216;-81
2022/07/03 10:19:22;;;;;;;1.87;0.70;;;21.10;1.00;;;;;;5015984;28;20193;-82
2022/07/03 10:22:01;;;;;;;1.87;0.90;;;21.40;1.00;;;;;;5016510;28;20191;-83
2022/07/03 10:24:31;;;;;;;2.13;0.70;;;21.60;1.00;;;;;;5015408;28;20176;-79
2022/07/03 10:26:58;;;;;;;3.27;0.97;;;21.10;1.00;;;;;;5031409;28;20470;-80
2022/07/03 10:29:26;;;;;;;2.80;0.90;;;21.10;1.00;;;;;;5032031;28;20268;-79
2022/07/03 10:31:52;;;;;;;2.20;0.80;;;21.10;1.00;;;;;;5016114;28;20222;-82
2022/07/03 10:34:23;;;;;;;2.77;0.90;;;21.30;1.00;;;;;;5017065;28;20171;-79
2022/07/03 10:37:03;;;;;;;1.67;0.90;;;21.60;1.00;;;;;;5016233;28;20690;-83
2022/07/03 10:39:55;;;;;;;3.17;1.20;;;21.90;1.00;;;;;;5016701;28;20174;-84
2022/07/03 10:45:18;;;;;;;2.53;1.00;;;21.90;1.00;;;;;;5016475;28;20198;-77
2022/07/03 10:47:50;;;;;;;3.50;0.90;;;21.80;1.00;;;;;;5016187;28;20296;-80
2022/07/03 10:50:19;;;;;;;3.10;1.00;;;21.50;1.00;;;;;;5017688;28;20631;-83
2022/07/03 10:52:45;;;;;;;3.03;1.10;;;21.30;1.00;;;;;;5020999;28;20175;-80
2022/07/03 10:55:13;;;;;;;4.33;1.20;;;21.40;1.00;;;;;;5045442;28;20174;-79
2022/07/03 10:57:40;;;;;;;2.87;1.00;;;21.50;1.00;;;;;;5027091;28;20178;-79
2022/07/03 11:00:14;;;;;;;3.23;1.20;;;21.80;1.00;;;;;;5025654;28;20185;-88
2022/07/03 11:02:48;;;;;;;4.00;1.50;;;22.10;1.00;;;;;;5019834;28;20529;-86
2022/07/03 11:05:22;;;;;;;3.13;1.17;;;22.20;1.00;;;;;;5031364;28;20174;-83
2022/07/03 11:07:52;;;;;;;3.20;1.10;;;22.30;1.00;;;;;;5015408;28;20198;-81
2022/07/03 11:10:17;;;;;;;3.47;0.70;;;22.40;1.00;;;;;;5030588;28;20197;-81
2022/07/03 11:13:01;;;;;;;2.13;0.93;;;22.30;1.00;;;;;;5015326;28;20638;-79
2022/07/03 11:15:39;;;;;;;2.53;1.20;;;22.10;1.00;;;;;;5031004;28;20658;-81
2022/07/03 11:18:14;;;;;;;3.97;1.27;;;22.10;1.00;;;;;;5016234;28;20169;-81
2022/07/03 11:20:43;;;;;;;3.00;0.83;;;22.10;1.00;;;;;;5034338;28;20181;-83
2022/07/03 11:23:26;;;;;;;2.10;0.70;;;22.00;1.00;;;;;;5020144;28;20192;-86
2022/07/03 11:25:59;;;;;;;2.97;0.90;;;22.00;99.90;;;;;;5015749;28;20193;-79
2022/07/03 11:28:33;;;;;;;2.47;0.80;;;21.70;1.00;;;;;;5015057;28;20208;-78
2022/07/03 11:31:11;;;;;;;3.40;1.10;;;21.70;1.00;;;;;;5016335;28;20260;-80
2022/07/03 11:33:51;;;;;;;2.23;0.87;;;21.90;1.00;;;;;;5036364;28;20174;-82
2022/07/03 11:36:17;;;;;;;4.27;1.00;;;22.10;99.90;;;;;;5029039;28;20168;-82
2022/07/03 11:38:44;;;;;;;2.00;0.80;;;22.30;99.90;;;;;;5029755;28;20178;-84
2022/07/03 11:41:11;;;;;;;3.27;1.10;;;22.50;1.00;;;;;;5035959;28;20170;-76
2022/07/03 11:43:37;;;;;;;2.40;0.90;;;22.70;1.00;;;;;;5030720;28;20174;-81
2022/07/03 11:46:05;;;;;;;2.53;1.03;;;22.90;1.00;;;;;;5017738;28;20201;-88
2022/07/03 11:48:33;;;;;;;3.37;1.00;;;23.10;1.00;;;;;;5019100;28;20211;-84
2022/07/03 11:51:07;;;;;;;2.57;1.13;;;23.10;95.10;;;;;;5019198;28;20663;-89
2022/07/03 11:53:36;;;;;;;2.83;0.90;;;23.00;99.90;;;;;;5019026;28;20176;-82
2022/07/03 11:56:09;;;;;;;2.83;1.03;;;22.70;36.20;;;;;;5015955;28;20151;-80
2022/07/03 11:58:46;;;;;;;1.40;0.80;;;22.60;1.00;;;;;;5015331;28;20206;-79
2022/07/03 12:01:36;;;;;;;3.30;1.17;;;22.70;1.00;;;;;;5015072;28;20175;-81
2022/07/03 12:04:13;;;;;;;4.33;0.97;;;22.60;48.10;;;;;;5015123;28;20570;-79
2022/07/03 12:06:53;;;;;;;1.67;0.80;;;22.20;1.00;;;;;;5014854;28;20220;-80
2022/07/03 12:09:27;;;;;;;2.90;0.80;;;22.20;1.00;;;;;;5016875;28;20174;-77
2022/07/03 12:12:00;;;;;;;3.23;0.60;;;22.30;99.90;;;;;;5031333;28;20185;-79
2022/07/03 12:14:45;;;;;;;3.37;0.80;;;22.20;1.00;;;;;;5028278;28;20627;-86
2022/07/03 12:17:19;;;;;;;1.93;0.73;;;22.20;1.00;;;;;;5019976;28;20170;-85
2022/07/03 12:19:55;;;;;;;3.07;0.87;;;22.30;1.00;;;;;;5019412;28;20193;-85
2022/07/03 12:22:37;;;;;;;1.60;0.60;;;22.80;1.00;;;;;;5016224;28;20173;-81
2022/07/03 12:25:11;;;;;;;2.27;1.00;;;22.80;99.90;;;;;;5015117;28;20241;-80
2022/07/03 12:27:41;;;;;;;4.37;1.70;;;22.30;99.90;;;;;;5015047;28;20212;-79
2022/07/03 12:30:10;;;;;;;4.30;1.20;;;22.30;99.90;;;;;;5015813;28;20226;-81
2022/07/03 12:32:38;;;;;;;1.17;0.63;;;22.40;1.00;;;;;;5016723;28;20170;-81
2022/07/03 12:35:04;;;;;;;3.23;1.37;;;22.30;99.90;;;;;;5015288;28;20170;-85
2022/07/03 12:37:40;;;;;;;3.87;1.10;;;22.30;1.00;;;;;;5017507;28;20166;-82
2022/07/03 12:40:10;;;;;;;3.87;1.43;;;22.20;99.90;;;;;;5032063;28;20177;-83
2022/07/03 12:42:47;;;;;;;3.17;0.87;;;22.10;99.90;;;;;;5026787;28;20167;-79
2022/07/03 12:45:14;;;;;;;2.30;1.00;;;22.00;92.80;;;;;;5042977;28;20174;-78
2022/07/03 12:47:40;;;;;;;3.27;1.30;;;22.00;99.90;;;;;;5028389;28;20289;-86
2022/07/03 12:50:12;;;;;;;3.27;0.90;;;22.00;99.90;;;;;;5019226;28;20657;-88
2022/07/03 12:52:57;;;;;;;3.23;1.13;;;22.10;99.90;;;;;;5021098;28;20182;-89
2022/07/03 12:55:30;;;;;;;5.13;1.40;;;21.80;99.90;;;;;;5024751;28;20194;-80
2022/07/03 13:01:05;;;;;;;2.93;1.03;;;22.10;99.90;;;;;;5031843;28;20170;-85
2022/07/03 13:03:35;;;;;;;2.37;0.80;;;22.60;99.90;;;;;;5022011;28;20587;-79
2022/07/03 13:06:02;;;;;;;5.13;1.00;;;22.80;1.00;;;;;;5018201;28;20175;-80
2022/07/03 13:08:29;;;;;;;2.90;0.90;;;22.60;1.00;;;;;;5018189;28;20206;-83
2022/07/03 13:10:59;;;;;;;2.27;1.00;;;22.50;1.00;;;;;;5017749;28;20241;-88
2022/07/03 13:13:45;;;;;;;2.03;0.90;;;22.50;1.00;;;;;;5019140;28;20179;-88
2022/07/03 13:16:26;;;;;;;1.90;0.80;;;22.60;99.90;;;;;;5018288;28;20162;-87
2022/07/03 13:19:02;;;;;;;1.73;0.90;;;23.00;99.90;;;;;;5030251;28;20172;-77
2022/07/03 13:21:28;;;;;;;3.03;1.20;;;22.90;99.90;;;;;;5047476;28;20174;-83
2022/07/03 13:23:55;;;;;;;2.33;1.00;;;22.80;1.00;;;;;;5026355;28;20158;-80
2022/07/03 13:26:21;;;;;;;1.97;0.87;;;23.00;1.00;;;;;;5021313;28;20258;-87
2022/07/03 13:28:48;;;;;;;2.77;0.97;;;23.20;1.00;;;;;;5018287;28;20231;-80
2022/07/03 13:31:14;;;;;;;1.70;0.80;;;23.30;99.90;;;;;;5017890;28;20162;-88